Time;durP1;ratioP1;P1;durP2;ratioP2;P2;SDS_P1;SDS_P2;PMS_P1;PMS_P2;Temp;Humidity;BMP_temperature;BMP_pressure;BME280_temperature;BME280_humidity;BME280_pressure;Samples;Min_cycle;Max_cycle;Signal;HPM_P1;HPM_P2
2022/02/24 00:02:25;;;;;;;19.40;11.02;;;;;;;;;;5113726;28;20367;-76
2022/02/24 00:04:51;;;;;;;17.02;10.80;;;;;;;;;;5102068;28;20020;-77
2022/02/24 00:07:17;;;;;;;40.78;23.00;;;;;;;;;;5093685;28;20059;-77
2022/02/24 00:09:43;;;;;;;64.85;40.63;;;;;;;;;;5093407;28;20057;-77
2022/02/24 00:12:10;;;;;;;58.85;40.63;;;;;;;;;;5092171;28;20383;-77
2022/02/24 00:14:36;;;;;;;68.80;42.42;;;;;;;;;;5092027;28;20566;-77
2022/02/24 00:17:02;;;;;;;67.32;41.40;;;;;;;;;;5091912;28;20044;-78
2022/02/24 00:19:28;;;;;;;63.38;38.90;;;;;;;;;;5093268;28;20048;-77
2022/02/24 00:21:54;;;;;;;70.25;43.38;;;;;;;;;;5091925;28;20133;-78
2022/02/24 00:24:20;;;;;;;65.85;39.45;;;;;;;;;;5091970;28;20027;-78
2022/02/24 00:26:46;;;;;;;62.13;39.55;;;;;;;;;;5091889;28;20016;-80
2022/02/24 00:29:12;;;;;;;29.17;16.40;;;;;;;;;;5091721;28;20032;-76
2022/02/24 00:31:38;;;;;;;28.92;17.17;;;;;;;;;;5091746;28;20107;-77
2022/02/24 00:34:04;;;;;;;41.90;24.55;;;;;;;;;;5091835;28;20070;-77
2022/02/24 00:36:30;;;;;;;41.65;26.20;;;;;;;;;;5091595;28;20130;-76
2022/02/24 00:38:56;;;;;;;47.80;24.83;;;;;;;;;;5091713;28;20024;-78
2022/02/24 00:41:22;;;;;;;45.17;27.00;;;;;;;;;;5094913;28;20040;-78
2022/02/24 00:43:48;;;;;;;53.60;27.88;;;;;;;;;;5111886;28;20019;-78
2022/02/24 00:46:14;;;;;;;34.53;19.27;;;;;;;;;;5112882;28;20069;-78
2022/02/24 00:48:40;;;;;;;30.50;17.23;;;;;;;;;;5113091;28;20106;-78
2022/02/24 00:51:06;;;;;;;15.90;10.10;;;;;;;;;;5112629;28;20016;-80
2022/02/24 00:53:32;;;;;;;33.80;20.67;;;;;;;;;;5112954;28;20070;-78
2022/02/24 00:55:59;;;;;;;40.67;23.35;;;;;;;;;;5111757;28;20144;-79
2022/02/24 00:58:26;;;;;;;35.55;20.58;;;;;;;;;;5112512;28;20074;-79
2022/02/24 01:00:55;;;;;;;26.75;15.25;;;;;;;;;;5111608;28;20118;-79
2022/02/24 01:03:22;;;;;;;38.85;20.02;;;;;;;;;;5112583;28;20423;-80
2022/02/24 01:05:48;;;;;;;33.25;16.90;;;;;;;;;;5112521;28;20015;-79
2022/02/24 01:08:14;;;;;;;39.35;21.13;;;;;;;;;;5112793;28;20019;-79
2022/02/24 01:10:41;;;;;;;59.00;34.35;;;;;;;;;;5112714;28;20165;-79
2022/02/24 01:13:07;;;;;;;43.08;23.33;;;;;;;;;;5112862;28;20019;-78
2022/02/24 01:15:34;;;;;;;22.65;13.95;;;;;;;;;;5111466;28;20064;-78
2022/02/24 01:18:00;;;;;;;25.40;12.77;;;;;;;;;;5112953;28;20039;-79
2022/02/24 01:20:26;;;;;;;36.17;19.35;;;;;;;;;;5112292;28;20016;-79
2022/02/24 01:22:52;;;;;;;29.58;16.40;;;;;;;;;;5111335;28;20041;-78
2022/02/24 01:25:19;;;;;;;37.88;21.17;;;;;;;;;;5111449;28;20028;-80
2022/02/24 01:27:46;;;;;;;61.88;31.83;;;;;;;;;;5112340;28;20424;-82
2022/02/24 01:30:13;;;;;;;65.55;35.30;;;;;;;;;;5112630;28;20027;-78
2022/02/24 01:32:39;;;;;;;70.25;41.75;;;;;;;;;;5110784;28;20030;-77
2022/02/24 01:35:05;;;;;;;70.35;39.65;;;;;;;;;;5112406;28;20028;-77
2022/02/24 01:37:31;;;;;;;81.57;48.42;;;;;;;;;;5111040;28;20019;-79
2022/02/24 01:39:57;;;;;;;86.03;48.58;;;;;;;;;;5112103;28;20047;-78
2022/02/24 01:42:23;;;;;;;86.80;50.08;;;77.70;2227.20;;;;;;5111933;28;20490;-77
2022/02/24 01:44:49;;;;;;;92.78;50.53;;;;;;;;;;5112077;28;20020;-78
2022/02/24 01:47:15;;;;;;;102.55;55.95;;;77.50;2227.20;;;;;;5112304;28;20024;-78
2022/02/24 01:49:42;;;;;;;83.45;49.55;;;77.40;2227.20;;;;;;5111817;28;20046;-78
2022/02/24 01:52:09;;;;;;;90.30;54.33;;;;;;;;;;5112014;28;20099;-78
2022/02/24 01:54:36;;;;;;;93.22;55.92;;;;;;;;;;5110971;28;20016;-78
2022/02/24 01:57:03;;;;;;;90.82;52.90;;;;;;;;;;5112259;28;20462;-78
2022/02/24 01:59:29;;;;;;;62.47;32.67;;;;;;;;;;5112268;28;20486;-78
2022/02/24 02:01:56;;;;;;;50.78;31.58;;;;;;;;;;5110569;28;20124;-78
2022/02/24 02:04:22;;;;;;;55.83;30.60;;;;;;;;;;5112174;28;20517;-77
2022/02/24 02:06:48;;;;;;;60.75;31.45;;;;;;;;;;5112239;28;20085;-77
2022/02/24 02:09:14;;;;;;;62.10;35.53;;;;;;;;;;5113152;28;20027;-78
2022/02/24 02:11:41;;;;;;;63.53;32.58;;;;;;;;;;5114988;28;20118;-77
2022/02/24 02:14:11;;;;;;;42.55;25.55;;;;;;;;;;5115890;28;20019;-77
2022/02/24 02:16:42;;;;;;;48.15;24.15;;;;;;;;;;5116040;28;20093;-77
2022/02/24 02:19:08;;;;;;;48.42;25.85;;;;;;;;;;5116137;28;20045;-77
2022/02/24 02:21:34;;;;;;;51.00;24.35;;;;;;;;;;5115672;28;20494;-78
2022/02/24 02:24:00;;;;;;;63.75;30.23;;;;;;;;;;5115656;28;20506;-77
2022/02/24 02:26:26;;;;;;;61.85;31.77;;;;;;;;;;5115911;28;20140;-77
2022/02/24 02:28:52;;;;;;;50.60;23.48;;;;;;;;;;5115833;28;20060;-76
2022/02/24 02:31:21;;;;;;;54.10;26.27;;;;;;;;;;5114621;28;20015;-76
2022/02/24 02:33:48;;;;;;;48.22;27.20;;;;;;;;;;5114620;28;20034;-78
2022/02/24 02:36:14;;;;;;;57.15;30.38;;;;;;;;;;5114165;28;20050;-78
2022/02/24 02:38:40;;;;;;;57.00;32.70;;;;;;;;;;5114427;28;20501;-79
2022/02/24 02:41:06;;;;;;;66.65;31.92;;;;;;;;;;5115886;28;20111;-76
2022/02/24 02:43:32;;;;;;;46.38;25.20;;;;;;;;;;5114239;28;20027;-76
2022/02/24 02:45:59;;;;;;;59.83;29.88;;;;;;;;;;5114217;28;20016;-77
2022/02/24 02:48:25;;;;;;;49.58;28.63;;;;;;;;;;5115494;28;20045;-77
2022/02/24 02:50:51;;;;;;;51.83;28.42;;;;;;;;;;5114091;28;20481;-77
2022/02/24 02:53:17;;;;;;;44.47;23.40;;;;;;;;;;5115437;28;20091;-78
2022/02/24 02:55:43;;;;;;;39.80;20.60;;;;;;;;;;5115304;28;20471;-76
2022/02/24 02:58:09;;;;;;;42.70;21.95;;;;;;;;;;5115426;28;20055;-81
2022/02/24 03:00:35;;;;;;;37.22;21.23;;;;;;;;;;5115295;28;20098;-79
2022/02/24 03:03:02;;;;;;;45.60;20.63;;;;;;;;;;5114955;28;20019;-77
2022/02/24 03:05:28;;;;;;;28.70;16.67;;;;;;;;;;5115139;28;20015;-76
2022/02/24 03:07:54;;;;;;;31.08;14.75;;;;;;;;;;5114797;28;20045;-76
2022/02/24 03:10:20;;;;;;;26.30;14.57;;;;;;;;;;5113757;28;20039;-75
2022/02/24 03:12:46;;;;;;;23.50;13.07;;;;;;;;;;5113760;28;20011;-75
2022/02/24 03:15:13;;;;;;;32.42;15.30;;;;;;;;;;5115230;28;20047;-76
2022/02/24 03:17:43;;;;;;;29.20;14.77;;;;;;;;;;5114343;28;20526;-76
2022/02/24 03:20:10;;;;;;;25.58;13.77;;;;;;;;;;5114052;28;20020;-77
2022/02/24 03:22:36;;;;;;;28.42;15.02;;;;;;;;;;5114055;28;20016;-76
2022/02/24 03:25:03;;;;;;;32.30;16.92;;;;;;;;;;5114792;28;20019;-76
2022/02/24 03:27:30;;;;;;;32.45;18.38;;;;;;;;;;5113481;28;20024;-76
2022/02/24 03:29:56;;;;;;;20.70;12.18;;;;;;;;;;5113310;28;20050;-76
2022/02/24 03:32:22;;;;;;;27.55;13.98;;;;;;;;;;5114787;28;20521;-76
2022/02/24 03:34:48;;;;;;;29.02;12.20;;;;;;;;;;5114506;28;20020;-76
2022/02/24 03:37:14;;;;;;;23.10;13.40;;;;;;;;;;5114391;28;20482;-76
2022/02/24 03:39:42;;;;;;;25.42;10.82;;;51.30;2227.20;;;;;;5114534;28;20027;-77
2022/02/24 03:42:08;;;;;;;23.05;12.57;;;26.50;2201.60;;;;;;5113243;28;20202;-78
2022/02/24 03:44:35;;;;;;;28.05;13.30;;;51.20;2227.20;;;;;;5114260;28;20030;-77
2022/02/24 03:47:00;;;;;;;19.83;11.30;;;26.40;2201.60;;;;;;5113112;28;20054;-77
2022/02/24 03:49:26;;;;;;;31.77;14.73;;;26.30;2201.60;;;;;;5114208;27;20184;-76
2022/02/24 03:51:52;;;;;;;27.75;14.93;;;;;;;;;;5114652;28;20024;-80
2022/02/24 03:54:19;;;;;;;28.13;11.63;;;;;;;;;;5113037;28;20015;-80
2022/02/24 03:56:45;;;;;;;24.73;14.43;;;26.20;2201.60;;;;;;5114279;28;20501;-78
2022/02/24 03:59:11;;;;;;;30.60;15.73;;;26.20;2201.60;;;;;;5114267;28;20023;-78
2022/02/24 04:01:37;;;;;;;32.08;14.90;;;26.20;2201.60;;;;;;5112919;28;20077;-78
2022/02/24 04:04:03;;;;;;;27.52;15.65;;;;;;;;;;5113826;28;20012;-76
2022/02/24 04:06:29;;;;;;;24.30;12.57;;;;;;;;;;5112743;28;20022;-76
2022/02/24 04:08:55;;;;;;;30.75;14.90;;;;;;;;;;5113570;28;20039;-78
2022/02/24 04:11:21;;;;;;;21.27;11.00;;;26.20;2201.60;;;;;;5112730;28;20019;-77
2022/02/24 04:13:47;;;;;;;23.75;13.20;;;26.00;2201.60;;;;;;5113796;28;20026;-79
2022/02/24 04:16:13;;;;;;;31.35;13.20;;;26.00;2201.60;;;;;;5113654;28;20474;-76
2022/02/24 04:18:39;;;;;;;22.30;11.85;;;26.00;2201.60;;;;;;5113563;28;20023;-76
2022/02/24 04:21:04;;;;;;;17.55;7.35;;;26.00;2201.60;;;;;;5113740;28;20023;-77
2022/02/24 04:23:30;;;;;;;15.73;6.50;;;26.00;2201.60;;;;;;5113404;28;20034;-77
2022/02/24 04:25:56;;;;;;;17.70;6.82;;;26.00;2201.60;;;;;;5113657;28;20022;-78
2022/02/24 04:28:22;;;;;;;18.77;8.20;;;26.00;2201.60;;;;;;5112280;28;20047;-77
2022/02/24 04:30:48;;;;;;;12.43;6.95;;;26.00;2201.60;;;;;;5112266;28;20080;-77
2022/02/24 04:33:13;;;;;;;25.42;11.82;;;26.00;2201.60;;;;;;5113465;28;20020;-77
2022/02/24 04:35:40;;;;;;;16.70;7.07;;;26.00;2201.60;;;;;;5113391;28;20028;-76
2022/02/24 04:38:06;;;;;;;12.77;6.45;;;26.00;2201.60;;;;;;5113496;28;20118;-77
2022/02/24 04:40:31;;;;;;;13.95;6.43;;;26.10;2201.60;;;;;;5113129;28;20158;-79
2022/02/24 04:42:57;;;;;;;16.55;8.35;;;;;;;;;;5111891;28;20032;-77
2022/02/24 04:45:23;;;;;;;14.57;7.30;;;;;;;;;;5113148;28;20073;-79
2022/02/24 04:47:50;;;;;;;16.02;7.28;;;;;;;;;;5113163;28;20054;-78
2022/02/24 04:50:16;;;;;;;12.80;7.60;;;;;;;;;;5113091;28;20100;-75
2022/02/24 04:52:42;;;;;;;25.25;11.93;;;;;;;;;;5112895;28;20020;-77
2022/02/24 04:55:09;;;;;;;28.52;12.15;;;;;;;;;;5112887;28;20095;-75
2022/02/24 04:57:35;;;;;;;31.33;17.10;;;;;;;;;;5113052;28;20020;-79
2022/02/24 05:00:03;;;;;;;42.42;16.02;;;;;;;;;;5112666;28;20432;-78
2022/02/24 05:02:29;;;;;;;22.42;11.30;;;;;;;;;;5092308;28;20054;-76
2022/02/24 05:04:55;;;;;;;17.52;8.35;;;;;;;;;;5092805;28;20440;-75
2022/02/24 05:07:21;;;;;;;24.10;11.20;;;;;;;;;;5092560;28;20497;-76
2022/02/24 05:09:47;;;;;;;25.48;11.23;;;;;;;;;;5091743;28;20032;-76
2022/02/24 05:12:13;;;;;;;20.55;8.77;;;;;;;;;;5092507;28;20017;-75
2022/02/24 05:14:39;;;;;;;15.98;7.63;;;;;;;;;;5092522;28;20046;-76
2022/02/24 05:17:05;;;;;;;16.05;7.10;;;;;;;;;;5125013;27;20084;-76
2022/02/24 05:19:31;;;;;;;16.77;8.20;;;;;;;;;;5092093;28;20020;-76
2022/02/24 05:21:59;;;;;;;22.75;10.43;;;;;;;;;;5124789;27;20044;-75
2022/02/24 05:24:25;;;;;;;26.80;11.05;;;;;;;;;;5092293;28;20020;-75
2022/02/24 05:26:51;;;;;;;27.92;13.50;;;;;;;;;;5090949;28;20069;-77
2022/02/24 05:29:17;;;;;;;29.50;12.02;;;;;;;;;;5090669;28;20042;-77
2022/02/24 05:31:43;;;;;;;22.05;11.52;;;;;;;;;;5090941;28;20016;-76
2022/02/24 05:34:09;;;;;;;33.45;13.48;;;;;;;;;;5092115;28;20066;-78
2022/02/24 05:36:35;;;;;;;41.70;18.58;;;;;;;;;;5090899;28;20020;-77
2022/02/24 05:39:01;;;;;;;22.83;13.77;;;;;;;;;;5092238;28;20012;-77
2022/02/24 05:41:27;;;;;;;36.17;15.75;;;;;;;;;;5094629;28;20047;-78
2022/02/24 05:43:53;;;;;;;31.73;15.25;;;;;;;;;;5109928;28;20019;-78
2022/02/24 05:46:20;;;;;;;25.75;13.20;;;;;;;;;;5111068;28;20019;-78
2022/02/24 05:48:46;;;;;;;34.33;13.70;;;;;;;;;;5112163;28;20073;-79
2022/02/24 05:51:13;;;;;;;49.15;23.15;;;;;;;;;;5112615;28;20012;-77
2022/02/24 05:53:39;;;;;;;39.75;20.20;;;;;;;;;;5112240;28;20020;-79
2022/02/24 05:56:05;;;;;;;54.25;26.45;;;;;;;;;;5112304;28;20015;-75
2022/02/24 05:58:31;;;;;;;48.40;21.27;;;;;;;;;;5110841;28;20034;-80
2022/02/24 06:00:57;;;;;;;39.78;20.25;;;;;;;;;;5110774;28;20019;-78
2022/02/24 06:03:23;;;;;;;38.75;16.63;;;;;;;;;;5110571;28;20027;-75
2022/02/24 06:05:53;;;;;;;41.30;20.13;;;;;;;;;;5110787;28;20391;-79
2022/02/24 06:08:20;;;;;;;36.20;18.00;;;;;;;;;;5112023;28;20115;-76
2022/02/24 06:10:46;;;;;;;43.30;19.52;;;;;;;;;;5111987;28;20070;-76
2022/02/24 06:13:12;;;;;;;36.92;14.40;;;;;;;;;;5110779;28;20373;-75
2022/02/24 06:15:38;;;;;;;35.65;20.65;;;;;;;;;;5110349;28;20542;-78
2022/02/24 06:18:08;;;;;;;42.47;20.95;;;;;;;;;;5111693;28;20115;-76
2022/02/24 06:20:34;;;;;;;36.10;19.65;;;;;;;;;;5110489;28;20020;-74
2022/02/24 06:23:00;;;;;;;26.25;16.20;;;;;;;;;;5111878;28;20407;-89
2022/02/24 06:25:26;;;;;;;27.08;16.52;;;;;;;;;;5111366;28;20487;-86
2022/02/24 06:27:52;;;;;;;44.15;19.50;;;;;;;;;;5112595;28;20024;-95
2022/02/24 06:30:19;;;;;;;42.47;20.63;;;;;;;;;;5112409;28;20084;-84
2022/02/24 06:32:45;;;;;;;32.83;18.70;;;;;;;;;;5103748;28;20048;-85
2022/02/24 06:35:12;;;;;;;31.38;16.85;;;;;;;;;;5090884;28;20039;-84
2022/02/24 06:37:42;;;;;;;44.72;18.55;;;;;;;;;;5090967;28;20024;-84
2022/02/24 06:40:09;;;;;;;44.35;23.52;;;;;;;;;;5091099;28;20028;-88
2022/02/24 06:42:35;;;;;;;35.22;18.02;;;;;;;;;;5104771;28;20047;-87
2022/02/24 06:45:03;;;;;;;37.65;20.38;;;;;;;;;;5112646;28;20027;-86
2022/02/24 06:47:29;;;;;;;28.65;14.23;;;;;;;;;;5112746;28;20043;-87
2022/02/24 06:49:55;;;;;;;27.67;13.75;;;;;;;;;;5112399;28;20082;-90
2022/02/24 06:52:21;;;;;;;26.48;15.82;;;;;;;;;;5111762;28;20072;-87
2022/02/24 06:54:47;;;;;;;29.90;13.00;;;;;;;;;;5112977;28;20096;-91
2022/02/24 06:57:13;;;;;;;32.30;15.15;;;;;;;;;;5115248;28;20133;-88
2022/02/24 06:59:39;;;;;;;30.35;16.67;;;;;;;;;;5116205;28;20026;-89
2022/02/24 07:02:06;;;;;;;29.27;13.25;;;;;;;;;;5115078;28;20015;-86
2022/02/24 07:04:35;;;;;;;45.45;18.42;;;;;;;;;;5114853;28;20497;-85
2022/02/24 07:07:02;;;;;;;37.05;13.70;;;;;;;;;;5116735;28;20038;-86
2022/02/24 07:09:29;;;;;;;30.90;16.95;;;;;;;;;;5094693;28;20127;-89
2022/02/24 07:11:56;;;;;;;32.20;18.45;;;;;;;;;;5101569;28;20011;-89
2022/02/24 07:14:22;;;;;;;28.90;16.23;;;;;;;;;;5115226;28;20019;-88
2022/02/24 07:16:48;;;;;;;49.75;23.17;;;;;;;;;;5115077;28;20039;-88
2022/02/24 07:19:15;;;;;;;44.53;20.63;;;;;;;;;;5112508;28;20012;-89
2022/02/24 07:21:41;;;;;;;27.08;17.05;;;;;;;;;;5115093;28;20028;-90
2022/02/24 07:24:07;;;;;;;50.22;24.27;;;;;;;;;;5115188;28;20023;-90
2022/02/24 07:26:33;;;;;;;45.42;24.83;;;;;;;;;;5114578;28;20394;-88
2022/02/24 07:28:59;;;;;;;48.55;19.58;;;;;;;;;;5116026;28;20067;-89
2022/02/24 07:31:25;;;;;;;42.05;22.92;;;;;;;;;;5114493;28;20110;-89
2022/02/24 07:33:51;;;;;;;45.20;24.92;;;;;;;;;;5115578;28;20016;-89
2022/02/24 07:36:17;;;;;;;34.28;20.10;;;;;;;;;;5114257;28;20016;-89
2022/02/24 07:38:44;;;;;;;38.65;20.77;;;;;;;;;;5114350;28;20058;-89
2022/02/24 07:41:10;;;;;;;34.22;18.35;;;;;;;;;;5115377;28;20023;-89
2022/02/24 07:43:36;;;;;;;28.55;15.40;;;;;;;;;;5115546;28;20081;-89
2022/02/24 07:46:03;;;;;;;38.75;19.98;;;;;;;;;;5115264;28;20039;-88
2022/02/24 07:48:29;;;;;;;38.80;19.65;;;;;;;;;;5115246;28;20031;-89
2022/02/24 07:50:55;;;;;;;38.75;19.55;;;;;;;;;;5115199;28;20054;-87
2022/02/24 07:53:22;;;;;;;34.83;17.75;;;;;;;;;;5115146;28;20098;-87
2022/02/24 07:55:48;;;;;;;31.85;14.25;;;;;;;;;;5113713;28;20024;-87
2022/02/24 07:58:14;;;;;;;32.67;14.75;;;;;;;;;;5114994;28;21045;-87
2022/02/24 08:00:41;;;;;;;22.45;9.82;;;;;;;;;;5114290;28;20038;-86
2022/02/24 08:03:07;;;;;;;11.82;6.47;;;;;;;;;;5114907;28;20016;-86
2022/02/24 08:05:33;;;;;;;18.40;8.00;;;;;;;;;;5114995;28;20058;-86
2022/02/24 08:07:59;;;;;;;14.63;5.97;;;;;;;;;;5112819;28;20023;-86
2022/02/24 08:10:26;;;;;;;12.27;6.93;;;;;;;;;;5114770;28;20035;-84
2022/02/24 08:12:52;;;;;;;12.82;6.68;;;;;;;;;;5114857;28;20024;-87
2022/02/24 08:15:21;;;;;;;19.80;7.97;;;;;;;;;;5113713;28;20110;-87
2022/02/24 08:17:49;;;;;;;13.02;6.57;;;;;;;;;;5114876;28;20048;-87
2022/02/24 08:20:15;;;;;;;20.13;7.15;;;;;;;;;;5113530;28;20051;-87
2022/02/24 08:22:42;;;;;;;9.95;4.00;;;;;;;;;;5114369;28;20073;-86
2022/02/24 08:25:10;;;;;;;14.25;3.92;;;;;;;;;;5114495;28;20026;-87
2022/02/24 08:27:37;;;;;;;12.38;4.78;;;;;;;;;;5114194;28;20061;-86
2022/02/24 08:30:04;;;;;;;8.40;4.65;;;;;;;;;;5114180;28;20027;-88
2022/02/24 08:32:30;;;;;;;14.40;5.78;;;;;;;;;;5113938;28;20386;-86
2022/02/24 08:34:58;;;;;;;9.45;4.13;;;;;;;;;;5114325;28;20095;-87
2022/02/24 08:37:24;;;;;;;9.82;5.13;;;;;;;;;;5114393;27;20050;-86
2022/02/24 08:39:50;;;;;;;12.60;5.55;;;;;;;;;;5097669;28;20020;-86
2022/02/24 08:42:17;;;;;;;13.55;4.75;;;;;;;;;;5137831;27;20099;-86
2022/02/24 08:44:43;;;;;;;8.43;4.20;;;;;;;;;;5114193;28;20019;-86
2022/02/24 08:47:11;;;;;;;9.93;4.05;;;;;;;;;;5114298;28;20019;-86
2022/02/24 08:49:37;;;;;;;13.55;5.13;;;;;;;;;;5114068;28;20038;-85
2022/02/24 08:52:03;;;;;;;12.02;4.72;;;;;;;;;;5113724;28;20023;-86
2022/02/24 08:54:31;;;;;;;12.45;6.00;;;;;;;;;;5112676;28;20122;-84
2022/02/24 08:56:57;;;;;;;11.90;4.93;;;;;;;;;;5112928;28;20027;-84
2022/02/24 08:59:23;;;;;;;11.20;3.85;;;;;;;;;;5112793;28;20026;-82
2022/02/24 09:01:49;;;;;;;13.25;5.13;;;;;;;;;;5117018;28;20104;-83
2022/02/24 09:04:15;;;;;;;16.77;7.68;;;;;;;;;;5115119;28;20024;-81
2022/02/24 09:06:41;;;;;;;10.15;4.70;;;;;;;;;;5113854;28;20069;-85
2022/02/24 09:09:08;;;;;;;14.82;5.40;;;;;;;;;;5113538;28;20036;-86
2022/02/24 09:11:34;;;;;;;16.38;5.65;;;;;;;;;;5112572;28;20108;-84
2022/02/24 09:14:00;;;;;;;10.95;4.32;;;;;;;;;;5113600;28;20023;-84
2022/02/24 09:16:27;;;;;;;12.48;4.90;;;;;;;;;;5112466;28;20509;-82
2022/02/24 09:18:53;;;;;;;15.57;5.85;;;;;;;;;;5112563;28;20024;-84
2022/02/24 09:21:20;;;;;;;13.40;4.32;;;;;;;;;;5113714;28;20012;-85
2022/02/24 09:23:46;;;;;;;17.40;6.75;;;;;;;;;;5112284;28;20023;-83
2022/02/24 09:26:12;;;;;;;15.43;4.93;;;;;;;;;;5112203;28;20114;-82
2022/02/24 09:28:38;;;;;;;30.90;7.90;;;;;;;;;;5112223;28;20533;-82
2022/02/24 09:31:05;;;;;;;20.48;6.53;;;;;;;;;;5112040;28;20115;-82
2022/02/24 09:33:31;;;;;;;15.23;5.80;;;;;;;;;;5113018;28;20042;-82
2022/02/24 09:35:57;;;;;;;11.75;4.15;;;;;;;;;;5112552;28;20030;-82
2022/02/24 09:38:24;;;;;;;10.77;4.00;;;;;;;;;;5113270;28;20097;-82
2022/02/24 09:40:53;;;;;;;9.43;4.40;;;;;;;;;;5113310;28;20016;-82
2022/02/24 09:43:19;;;;;;;16.10;7.13;;;;;;;;;;5111937;28;20020;-83
2022/02/24 09:45:48;;;;;;;14.88;5.97;;;;;;;;;;5111669;28;20016;-82
2022/02/24 09:48:18;;;;;;;19.38;5.18;;;;;;;;;;5111890;28;20026;-81
2022/02/24 09:50:51;;;;;;;11.15;5.43;;;;;;;;;;5111809;28;20036;-81
2022/02/24 09:53:17;;;;;;;12.02;5.45;;;;;;;;;;5113069;28;20023;-82
2022/02/24 09:55:43;;;;;;;14.60;6.20;;;;;;;;;;5113309;28;20031;-81
2022/02/24 09:58:09;;;;;;;23.48;7.13;;;;;;;;;;5113209;28;20051;-81
2022/02/24 10:00:37;;;;;;;15.35;5.60;;;;;;;;;;5111808;28;20015;-81
2022/02/24 10:03:06;;;;;;;10.75;4.03;;;;;;;;;;5111902;28;20057;-82
2022/02/24 10:05:32;;;;;;;14.27;4.63;;;;;;;;;;5111811;28;20023;-82
2022/02/24 10:08:10;;;;;;;19.65;5.53;;;;;;;;;;5111952;28;21046;-80
2022/02/24 10:10:36;;;;;;;11.02;5.25;;;;;;;;;;5112556;28;20028;-81
2022/02/24 10:13:02;;;;;;;10.85;4.93;;;;;;;;;;5111599;28;20020;-83
2022/02/24 10:15:29;;;;;;;11.85;5.38;;;;;;;;;;5112824;28;20020;-83
2022/02/24 10:18:08;;;;;;;14.57;5.07;;;;;;;;;;5111406;28;20059;-83
2022/02/24 10:20:35;;;;;;;10.52;4.00;;;;;;;;;;5112446;28;20034;-83
2022/02/24 10:23:01;;;;;;;7.57;3.53;;;;;;;;;;5111773;28;20405;-85
2022/02/24 10:25:27;;;;;;;17.27;7.80;;;;;;;;;;5111573;28;20408;-81
2022/02/24 10:27:53;;;;;;;14.48;7.18;;;;;;;;;;5113120;28;20026;-83
2022/02/24 10:30:19;;;;;;;8.13;3.72;;;;;;;;;;5112691;28;20424;-82
2022/02/24 10:32:50;;;;;;;10.02;5.15;;;;;;;;;;5116350;28;20462;-81
2022/02/24 10:35:22;;;;;;;9.63;4.43;;;;;;;;;;5116814;28;20558;-80
2022/02/24 10:38:11;;;;;;;8.93;4.68;;;;;;;;;;5116583;28;20032;-81
2022/02/24 10:40:37;;;;;;;10.65;4.50;;;;;;;;;;5102711;28;20482;-82
2022/02/24 10:43:15;;;;;;;12.00;4.95;;;;;;;;;;5116607;28;20028;-81
2022/02/24 10:45:42;;;;;;;9.15;3.17;;;;;;;;;;5115344;28;20027;-81
2022/02/24 10:48:08;;;;;;;8.88;4.40;;;;;;;;;;5115422;28;20024;-82
2022/02/24 10:51:05;;;;;;;10.65;4.63;;;;;;;;;;5116222;28;20039;-82
2022/02/24 10:53:35;;;;;;;14.57;4.78;;;;;;;;;;5104057;28;20035;-83
2022/02/24 10:56:03;;;;;;;8.52;4.47;;;;;;;;;;5115188;28;20018;-82
2022/02/24 10:58:31;;;;;;;13.05;4.30;;;;;;;;;;5116140;28;20019;-82
2022/02/24 11:01:06;;;;;;;10.20;4.25;;;;;;;;;;5114848;28;20020;-81
2022/02/24 11:03:32;;;;;;;13.88;4.53;;;;;;;;;;5114613;28;20114;-80
2022/02/24 11:05:59;;;;;;;8.82;4.10;;;;;;;;;;5114999;28;20019;-81
2022/02/24 11:08:27;;;;;;;8.85;4.85;;;333.10;1152.00;;;;;;5114887;28;20015;-82
2022/02/24 11:10:55;;;;;;;6.03;2.83;;;307.70;1177.60;;;;;;5115845;28;20038;-80
2022/02/24 11:13:21;;;;;;;16.17;9.18;;;281.90;1228.80;;;;;;5115976;28;20028;-80
2022/02/24 11:15:47;;;;;;;7.47;2.63;;;332.80;1177.60;;;;;;5115772;28;20012;-80
2022/02/24 11:18:14;;;;;;;9.88;4.57;;;308.10;1177.60;;;;;;5115682;28;20113;-82
2022/02/24 11:20:40;;;;;;;12.52;5.05;;;307.70;1177.60;;;;;;5114435;28;20048;-79
2022/02/24 11:23:07;;;;;;;12.52;4.70;;;;;;;;;;5114790;28;20020;-80
2022/02/24 11:25:36;;;;;;;10.02;5.60;;;;;;;;;;5113553;28;20028;-78
2022/02/24 11:28:03;;;;;;;12.95;5.68;;;;;;;;;;5113267;28;20020;-78
2022/02/24 11:30:32;;;;;;;6.55;3.42;;;;;;;;;;5114525;28;20027;-76
2022/02/24 11:32:59;;;;;;;10.85;4.57;;;;;;;;;;5115166;28;20500;-76
2022/02/24 11:35:25;;;;;;;8.35;4.28;;;;;;;;;;5114554;28;20031;-79
2022/02/24 11:38:11;;;;;;;7.60;4.07;;;;;;;;;;5113395;28;20043;-77
2022/02/24 11:40:37;;;;;;;17.30;5.68;;;;;;;;;;5113033;28;20521;-74
2022/02/24 11:43:21;;;;;;;10.13;4.18;;;;;;;;;;5113336;28;20027;-75
2022/02/24 11:45:51;;;;;;;10.00;3.58;;;;;;;;;;5113094;28;20073;-75
2022/02/24 11:48:21;;;;;;;9.13;3.47;;;;;;;;;;5113244;28;20126;-76
2022/02/24 11:50:56;;;;;;;17.55;9.02;;;;;;;;;;5112704;28;20061;-76
2022/02/24 11:53:28;;;;;;;18.13;6.50;;;;;;;;;;5114581;28;20094;-78
2022/02/24 11:56:05;;;;;;;12.30;4.88;;;;;;;;;;5113959;28;20073;-75
2022/02/24 11:58:38;;;;;;;13.60;6.00;;;;;;;;;;5114321;28;20108;-77
2022/02/24 12:01:18;;;;;;;11.43;6.43;;;;;;;;;;5114184;28;20020;-76
2022/02/24 12:03:44;;;;;;;8.50;3.75;;;;;;;;;;5114300;28;20069;-77
2022/02/24 12:06:10;;;;;;;25.75;7.60;;;;;;;;;;5113960;28;20020;-76
2022/02/24 12:08:55;;;;;;;8.98;4.35;;;;;;;;;;5112667;28;20015;-78
2022/02/24 12:11:28;;;;;;;13.80;6.72;;;;;;;;;;5112492;28;20489;-76
2022/02/24 12:13:54;;;;;;;19.45;6.72;;;;;;;;;;5112550;28;20154;-75
2022/02/24 12:16:23;;;;;;;6.85;3.60;;;384.40;972.80;;;;;;5113331;28;20083;-78
2022/02/24 12:18:50;;;;;;;11.93;4.68;;;;;;;;;;5112511;28;20024;-76
2022/02/24 12:21:33;;;;;;;15.15;6.05;;;;;;;;;;5113645;28;20034;-77
2022/02/24 12:24:19;;;;;;;10.85;4.90;;;;;;;;;;5114647;28;20023;-77
2022/02/24 12:26:47;;;;;;;10.63;8.00;;;;;;;;;;5113536;28;20065;-76
2022/02/24 12:29:20;;;;;;;19.98;5.43;;;;;;;;;;5113633;28;20042;-77
2022/02/24 12:31:47;;;;;;;12.77;4.40;;;;;;;;;;5113621;28;20055;-75
2022/02/24 12:34:13;;;;;;;9.35;5.70;;;;;;;;;;5113493;28;20470;-80
2022/02/24 12:36:39;;;;;;;10.77;4.28;;;;;;;;;;5113393;28;20022;-76
2022/02/24 12:39:05;;;;;;;8.95;4.50;;;;;;;;;;5113264;28;20062;-78
2022/02/24 12:41:32;;;;;;;10.27;6.10;;;;;;;;;;5113494;28;20012;-78
2022/02/24 12:43:58;;;;;;;9.50;4.82;;;;;;;;;;5112111;28;20111;-79
2022/02/24 12:46:24;;;;;;;11.05;4.72;;;;;;;;;;5112219;28;20379;-76
2022/02/24 12:48:50;;;;;;;8.77;4.85;;;;;;;;;;5112750;28;20472;-78
2022/02/24 12:51:23;;;;;;;7.43;4.18;;;;;;;;;;5112210;28;20470;-78
2022/02/24 12:53:49;;;;;;;9.95;5.28;;;;;;;;;;5111558;28;20067;-76
2022/02/24 12:56:17;;;;;;;7.28;4.45;;;410.10;947.20;;;;;;5113264;28;20145;-76
2022/02/24 12:58:45;;;;;;;11.00;5.38;;;410.10;998.40;;;;;;5112236;28;20035;-77
2022/02/24 13:01:13;;;;;;;9.07;4.50;;;436.00;896.00;;;;;;5113055;28;20088;-77
2022/02/24 13:03:40;;;;;;;11.32;4.30;;;486.40;844.80;;;;;;5112913;28;20106;-76
2022/02/24 13:06:06;;;;;;;19.75;7.25;;;461.00;870.40;;;;;;5112568;28;20070;-77
2022/02/24 13:11:19;;;;;;;13.07;5.47;;;;;;;;;;5112573;28;20092;-78
2022/02/24 13:13:45;;;;;;;11.60;4.43;;;;;;;;;;5102095;28;20020;-77
2022/02/24 13:16:18;;;;;;;11.38;6.45;;;537.90;768.00;;;;;;5124012;27;20479;-77
2022/02/24 13:18:46;;;;;;;21.35;9.68;;;538.10;742.40;;;;;;5091278;28;20463;-79
2022/02/24 13:21:14;;;;;;;10.60;5.97;;;537.60;768.00;;;;;;5090349;28;20020;-78
2022/02/24 13:23:43;;;;;;;11.48;6.40;;;563.40;768.00;;;;;;5090854;28;20040;-80
2022/02/24 13:26:09;;;;;;;28.15;24.05;;;563.90;742.40;;;;;;5091933;28;20020;-79
2022/02/24 13:28:36;;;;;;;14.50;6.03;;;563.70;742.40;;;;;;5126015;27;20028;-81
2022/02/24 13:31:06;;;;;;;18.15;7.00;;;;;;;;;;5092985;28;20036;-82
2022/02/24 13:33:35;;;;;;;17.45;8.85;;;;;;;;;;5093403;28;20024;-80
2022/02/24 13:36:02;;;;;;;11.40;5.03;;;;;;;;;;5125660;27;20043;-77
2022/02/24 13:38:39;;;;;;;16.05;11.38;;;;;;;;;;5092800;28;20024;-76
2022/02/24 13:41:07;;;;;;;17.35;9.13;;;;;;;;;;5093373;28;20066;-81
2022/02/24 13:43:37;;;;;;;9.57;5.78;;;;;;;;;;5112043;28;20027;-79
2022/02/24 13:46:03;;;;;;;13.90;7.65;;;;;;;;;;5113252;28;20462;-79
2022/02/24 13:48:36;;;;;;;19.00;7.03;;;;;;;;;;5112595;28;20130;-78
2022/02/24 13:51:03;;;;;;;12.48;7.72;;;;;;;;;;5112634;28;20028;-83
2022/02/24 13:53:30;;;;;;;73.50;20.42;;;;;;;;;;5112015;28;20016;-79
2022/02/24 13:55:58;;;;;;;22.13;8.73;;;;;;;;;;5113148;28;20024;-80
2022/02/24 13:58:24;;;;;;;10.13;5.28;;;;;;;;;;5111884;28;20015;-81
2022/02/24 14:00:55;;;;;;;14.68;7.32;;;;;;;;;;5111968;28;20486;-80
2022/02/24 14:03:28;;;;;;;12.90;6.65;;;;;;;;;;5113144;28;20050;-80
2022/02/24 14:06:00;;;;;;;27.52;24.52;;;;;;;;;;5115270;28;20528;-80
2022/02/24 14:08:30;;;;;;;16.02;10.38;;;;;;;;;;5117669;28;20474;-81
2022/02/24 14:11:03;;;;;;;8.93;6.20;;;;;;;;;;5116089;28;20040;-81